Time;durP1;ratioP1;P1;durP2;ratioP2;P2;SDS_P1;SDS_P2;PMS_P1;PMS_P2;Temp;Humidity;BMP_temperature;BMP_pressure;BME280_temperature;BME280_humidity;BME280_pressure;Samples;Min_cycle;Max_cycle;Signal;HPM_P1;HPM_P2
2020/12/31 00:00:46;;;;;;;41.40;15.80;;;;;;;8.15;94.61;98974.69;3477682;28;20052;-48
2020/12/31 00:02:27;;;;;;;37.72;17.05;;;;;;;8.15;94.58;98975.53;3476945;28;20481;-49
2020/12/31 00:04:08;;;;;;;41.20;17.90;;;;;;;8.15;94.76;98966.94;3469177;28;20046;-48
2020/12/31 00:05:49;;;;;;;39.40;16.52;;;;;;;8.15;94.87;98960.03;3480442;28;20052;-47
2020/12/31 00:07:31;;;;;;;30.13;16.42;;;;;;;8.15;94.74;98964.34;3479036;28;20072;-48
2020/12/31 00:09:12;;;;;;;31.65;15.45;;;;;;;8.15;94.81;98972.94;3468919;28;20050;-47
2020/12/31 00:10:54;;;;;;;38.00;15.95;;;;;;;8.15;94.69;98964.34;3480613;28;20080;-47
2020/12/31 00:12:36;;;;;;;36.70;15.68;;;;;;;8.15;94.86;98961.75;3479449;28;20467;-46
2020/12/31 00:14:17;;;;;;;37.55;16.98;;;;;;;8.16;94.93;98959.16;3482271;28;20052;-47
2020/12/31 00:15:59;;;;;;;38.97;17.77;;;;;;;8.17;94.88;98960.06;3481478;28;20059;-47
2020/12/31 00:17:40;;;;;;;36.20;17.58;;;;;;;8.17;94.87;98965.22;3479415;28;20045;-46
2020/12/31 00:19:22;;;;;;;40.92;17.50;;;;;;;8.20;94.99;98968.72;3481335;28;20570;-49
2020/12/31 00:21:03;;;;;;;42.95;17.85;;;;;;;8.21;94.93;98966.97;3469046;28;20085;-48
2020/12/31 00:22:45;;;;;;;38.10;18.40;;;;;;;8.22;94.92;98968.72;3479325;28;20072;-49
2020/12/31 00:24:26;;;;;;;40.95;18.27;;;;;;;8.23;94.77;98969.59;3479621;28;20099;-49
2020/12/31 00:26:08;;;;;;;38.30;18.73;;;;;;;8.23;94.82;98969.59;3468943;28;20077;-47
2020/12/31 00:27:50;;;;;;;38.92;17.73;;;;;;;8.23;94.92;98965.28;3469407;28;20049;-47
2020/12/31 00:29:31;;;;;;;38.90;17.45;;;;;;;8.24;94.77;98971.34;3467845;28;20064;-47
2020/12/31 00:31:13;;;;;;;45.33;18.33;;;;;;;8.23;94.73;98959.25;3468785;28;20528;-47
2020/12/31 00:32:54;;;;;;;42.63;18.02;;;;;;;8.21;94.83;98964.41;3481052;28;20417;-47
2020/12/31 00:34:36;;;;;;;42.60;16.85;;;;;;;8.22;94.59;98968.72;3480375;28;20098;-48
2020/12/31 00:36:17;;;;;;;39.20;18.48;;;;;;;8.20;94.65;98963.53;3480267;28;20048;-47
2020/12/31 00:37:59;;;;;;;36.92;18.35;;;;;;;8.19;94.80;98955.75;3468611;28;20103;-48
2020/12/31 00:39:40;;;;;;;32.72;18.75;;;;;;;8.18;94.85;98961.78;3470524;28;20499;-49
2020/12/31 00:41:22;;;;;;;48.53;18.00;;;;;;;8.18;94.63;98967.81;3469416;28;20087;-46
2020/12/31 00:43:04;;;;;;;41.20;17.83;;;;;;;8.18;94.92;98966.94;3477966;28;20064;-47
2020/12/31 00:44:45;;;;;;;39.67;18.20;;;;;;;8.17;94.75;98968.66;3472531;28;20073;-46
2020/12/31 00:46:27;;;;;;;39.13;18.42;;;;;;;8.17;94.78;98967.81;3468622;28;20151;-47
2020/12/31 00:48:08;;;;;;;42.40;17.60;;;;;;;8.17;94.72;98973.81;3468563;28;20410;-46
2020/12/31 00:49:50;;;;;;;39.72;17.98;;;;;;;8.16;94.84;98969.50;3470490;28;20085;-46
2020/12/31 00:51:31;;;;;;;40.30;18.58;;;;;;;8.16;94.88;98966.91;3468013;28;20056;-47
2020/12/31 00:53:12;;;;;;;34.67;17.75;;;;;;;8.15;94.83;98964.34;3469468;28;20073;-47
2020/12/31 00:54:54;;;;;;;41.90;18.85;;;;;;;8.14;94.47;98971.19;3468445;28;20077;-47
2020/12/31 00:56:35;;;;;;;36.45;16.88;;;;;;;8.14;94.59;98962.59;3467694;28;20529;-47
2020/12/31 00:58:17;;;;;;;34.30;17.17;;;;;;;8.14;94.65;98976.38;3470934;28;20072;-47
2020/12/31 00:59:58;;;;;;;47.78;18.98;;;;;;;8.15;94.73;98982.41;3482237;28;20080;-47
2020/12/31 01:01:40;;;;;;;34.05;17.23;;;;;;;8.14;94.65;98975.50;3480429;28;20515;-47
2020/12/31 01:03:21;;;;;;;38.15;16.48;;;;;;;8.14;94.69;98972.94;3478076;28;20084;-47
2020/12/31 01:05:06;;;;;;;42.00;18.08;;;;;;;8.13;94.62;98981.50;3468379;28;20053;-47
2020/12/31 01:06:47;;;;;;;31.70;16.85;;;;;;;8.13;94.86;98976.34;3469085;28;20053;-47
2020/12/31 01:08:29;;;;;;;33.85;17.52;;;;;;;8.13;94.36;98971.19;3472112;28;20096;-47
2020/12/31 01:10:11;;;;;;;39.08;16.95;;;;;;;8.12;94.51;98975.50;3481805;28;20103;-49
2020/12/31 01:11:55;;;;;;;35.45;16.63;;;;;;;8.12;94.54;98972.03;3480706;28;20049;-49
2020/12/31 01:13:37;;;;;;;37.03;16.83;;;;;;;8.12;94.55;98977.22;3472252;28;20220;-48
2020/12/31 01:15:18;;;;;;;33.70;16.52;;;;;;;8.11;94.52;98973.78;3469347;28;20436;-47
2020/12/31 01:16:59;;;;;;;36.47;18.60;;;;;;;8.12;94.61;98974.63;3482320;28;20080;-47
2020/12/31 01:18:41;;;;;;;37.40;18.38;;;;;;;8.12;94.49;98979.78;3480171;28;20540;-48
2020/12/31 01:20:22;;;;;;;37.78;17.08;;;;;;;8.10;94.52;98977.19;3476479;28;20037;-47
2020/12/31 01:22:04;;;;;;;38.92;17.58;;;;;;;8.11;94.52;98985.78;3468422;28;20045;-47
2020/12/31 01:23:45;;;;;;;41.47;16.98;;;;;;;8.10;94.51;98969.44;3470506;28;20095;-48
2020/12/31 01:25:27;;;;;;;40.10;16.85;;;;;;;8.11;94.57;98972.88;3468988;28;20056;-47
2020/12/31 01:27:08;;;;;;;34.85;18.30;;;;;;;8.09;94.65;98972.00;3467824;28;20079;-47
2020/12/31 01:28:50;;;;;;;35.10;17.92;;;;;;;8.11;94.43;98971.19;3479700;28;20056;-47
2020/12/31 01:30:32;;;;;;;40.58;17.15;;;;;;;8.11;94.42;98975.47;3475957;28;20057;-48
2020/12/31 01:32:13;;;;;;;44.80;17.58;;;;;;;8.10;94.57;98978.91;3470272;28;20446;-47
2020/12/31 01:33:54;;;;;;;40.55;17.23;;;;;;;8.10;94.54;98972.03;3481339;28;20517;-47
2020/12/31 01:35:36;;;;;;;34.97;17.05;;;;;;;8.11;94.47;98975.47;3479997;28;20056;-47
2020/12/31 01:37:17;;;;;;;39.90;17.48;;;;;;;8.10;94.59;98981.50;3478850;28;20045;-46
2020/12/31 01:38:59;;;;;;;35.45;17.23;;;;;;;8.10;94.46;98973.75;3468087;28;20058;-46
2020/12/31 01:40:46;;;;;;;35.72;16.25;;;;;;;8.09;94.73;98983.19;3468809;28;20546;-46
2020/12/31 01:42:27;;;;;;;40.35;18.60;;;;;;;8.08;94.71;98972.88;3470419;28;20053;-46
2020/12/31 01:44:11;;;;;;;35.63;16.45;;;;;;;8.08;94.79;98973.72;3482063;28;20079;-46
2020/12/31 01:45:54;;;;;;;41.90;18.77;;;;;;;8.08;94.75;98972.88;3480390;28;20049;-48
2020/12/31 01:47:36;;;;;;;39.42;17.92;;;;;;;8.07;94.93;98973.69;3472569;28;20053;-51
2020/12/31 01:49:20;;;;;;;47.40;20.48;;;;;;;8.06;95.05;98972.84;3468907;28;20057;-51
2020/12/31 01:51:02;;;;;;;44.05;19.50;;;;;;;8.06;95.10;98969.38;3468224;28;20057;-49
2020/12/31 01:52:46;;;;;;;48.03;19.17;;;;;;;8.03;95.10;98965.91;3478019;28;20063;-47
2020/12/31 01:54:28;;;;;;;41.97;18.95;;;;;;;8.03;95.23;98967.63;3479778;28;20049;-47
2020/12/31 01:56:13;;;;;;;37.65;17.40;;;;;;;8.02;95.83;98963.31;3481688;28;20421;-50
2020/12/31 01:57:54;;;;;;;45.55;17.88;;;;;;;8.01;95.62;98962.44;3469262;28;20480;-47
2020/12/31 01:59:36;;;;;;;48.58;19.55;;;;;;;8.01;95.66;98961.59;3471427;28;20049;-47
2020/12/31 02:01:20;;;;;;;39.15;18.73;;;;;;;7.99;95.62;98956.41;3482292;28;20060;-48
2020/12/31 02:03:01;;;;;;;39.92;17.50;;;;;;;8.00;95.87;98965.00;3480599;28;20092;-52
2020/12/31 02:04:43;;;;;;;41.95;18.17;;;;;;;8.00;95.93;98971.03;3474723;28;20046;-49
2020/12/31 02:06:26;;;;;;;42.40;18.40;;;;;;;7.99;95.97;98960.72;3470264;28;20057;-48
2020/12/31 02:08:08;;;;;;;46.35;18.70;;;;;;;7.98;96.18;98970.16;3481742;28;20060;-49
2020/12/31 02:09:49;;;;;;;41.55;19.30;;;;;;;7.97;96.14;98965.84;3479570;28;20056;-49
2020/12/31 02:11:30;;;;;;;33.53;16.23;;;;;;;7.96;96.11;98956.34;3479868;28;20041;-48
2020/12/31 02:13:12;;;;;;;40.13;18.85;;;;;;;7.95;96.27;98952.06;3481807;28;20057;-49
2020/12/31 02:14:55;;;;;;;41.13;17.27;;;;;;;7.94;96.20;98947.72;3478252;28;20076;-49
2020/12/31 02:16:38;;;;;;;46.35;18.70;;;;;;;7.94;95.96;98950.31;3474105;28;20084;-50
2020/12/31 02:18:20;;;;;;;47.97;19.70;;;;;;;7.94;96.34;98946.88;3467537;28;20184;-49
2020/12/31 02:20:01;;;;;;;44.70;18.35;;;;;;;7.94;96.44;98941.69;3479625;28;20087;-50
2020/12/31 02:21:44;;;;;;;36.75;17.48;;;;;;;7.92;96.34;98943.38;3472080;28;20054;-49
2020/12/31 02:23:25;;;;;;;41.30;16.77;;;;;;;7.92;96.34;98940.78;3468467;28;20391;-47
2020/12/31 02:25:07;;;;;;;47.05;19.38;;;;;;;7.92;96.36;98944.25;3468032;28;20124;-51
2020/12/31 02:26:49;;;;;;;47.03;20.17;;;;;;;7.92;96.68;98948.53;3470853;28;20061;-52
2020/12/31 02:28:30;;;;;;;38.15;17.27;;;;;;;7.92;96.65;98943.38;3474140;28;20049;-50
2020/12/31 02:30:12;;;;;;;39.33;18.83;;;;;;;7.90;96.70;98940.78;3483643;28;20064;-50
2020/12/31 02:31:53;;;;;;;40.95;18.05;;;;;;;7.90;96.56;98933.03;3480399;28;20053;-52
2020/12/31 02:33:34;;;;;;;53.97;19.73;;;;;;;7.91;96.80;98936.50;3478339;28;20049;-51
2020/12/31 02:35:16;;;;;;;47.40;20.00;;;;;;;7.91;96.80;98926.16;3469572;28;20544;-48
2020/12/31 02:36:58;;;;;;;41.70;18.70;;;;;;;7.90;96.78;98929.56;3470701;28;20057;-50
2020/12/31 02:38:40;;;;;;;50.78;19.17;;;;;;;7.90;96.89;98932.16;3468869;28;20072;-47
2020/12/31 02:40:22;;;;;;;45.03;19.58;;;;;;;7.90;96.82;98929.56;3470682;28;20426;-49
2020/12/31 02:42:03;;;;;;;47.17;19.08;;;;;;;7.88;96.97;98929.56;3470635;28;20103;-47
2020/12/31 02:43:44;;;;;;;37.75;17.98;;;;;;;7.87;96.90;98930.41;3473149;28;20091;-50
2020/12/31 02:45:25;;;;;;;44.97;17.02;;;;;;;7.88;96.78;98937.28;3470563;28;20080;-51
2020/12/31 02:47:07;;;;;;;40.63;18.30;;;;;;;7.88;96.88;98939.88;3470155;28;20057;-48
2020/12/31 02:48:50;;;;;;;49.45;19.08;;;;;;;7.88;97.05;98942.47;3480816;28;20473;-51
2020/12/31 02:50:31;;;;;;;44.80;18.47;;;;;;;7.88;96.99;98939.88;3478643;28;20080;-48
2020/12/31 02:52:13;;;;;;;50.28;18.48;;;;;;;7.88;97.00;98941.59;3469890;28;20313;-50
2020/12/31 02:53:54;;;;;;;44.72;20.00;;;;;;;7.88;96.90;98946.78;3482977;28;20049;-52
2020/12/31 02:55:36;;;;;;;51.60;21.48;;;;;;;7.87;96.93;98937.31;3482803;28;20056;-49
2020/12/31 02:57:18;;;;;;;48.83;20.10;;;;;;;7.85;97.06;98937.28;3483112;28;20061;-47
2020/12/31 02:58:59;;;;;;;52.65;20.83;;;;;;;7.86;97.03;98938.13;3482278;28;20053;-48
2020/12/31 03:00:41;;;;;;;62.03;21.95;;;;;;;7.85;96.98;98934.69;3476547;28;20057;-47
2020/12/31 03:02:22;;;;;;;66.40;22.55;;;;;;;7.83;97.07;98928.66;3471611;28;20054;-47
2020/12/31 03:04:04;;;;;;;57.42;22.58;;;;;;;7.81;97.13;98925.16;3469997;28;20045;-48
2020/12/31 03:05:45;;;;;;;65.90;20.88;;;;;;;7.80;97.21;98919.13;3470437;28;20115;-47
2020/12/31 03:07:27;;;;;;;52.85;20.25;;;;;;;7.78;97.09;98915.69;3470173;28;20107;-53
2020/12/31 03:09:08;;;;;;;55.53;21.40;;;;;;;7.79;97.21;98921.69;3469549;28;20052;-51
2020/12/31 03:10:51;;;;;;;60.40;22.23;;;;;;;7.78;97.31;98926.00;3471645;28;20046;-48
2020/12/31 03:12:32;;;;;;;61.45;20.98;;;;;;;7.77;97.17;98907.91;3471752;28;20080;-47
2020/12/31 03:14:13;;;;;;;54.70;19.92;;;;;;;7.78;97.43;98920.84;3469553;28;20049;-47
2020/12/31 03:17:55;;;;;;;76.90;27.85;;;;;;;7.77;97.30;98918.25;3471899;28;20107;-50
2020/12/31 03:19:36;;;;;;;50.97;22.38;;;;;;;7.77;97.30;98902.75;3472280;28;20045;-48
2020/12/31 03:21:18;;;;;;;49.30;20.92;;;;;;;7.75;97.48;98897.56;3483091;28;20426;-52
2020/12/31 03:23:00;;;;;;;58.78;23.23;;;;;;;7.76;97.27;98911.31;3471703;28;20103;-49
2020/12/31 03:24:41;;;;;;;48.92;20.13;;;;;;;7.74;97.34;98890.69;3470185;28;20046;-52
2020/12/31 03:26:22;;;;;;;56.22;22.38;;;;;;;7.73;97.19;98894.09;3469311;28;20549;-52
2020/12/31 03:28:04;;;;;;;55.67;23.50;;;;;;;7.72;97.19;98891.50;3471276;28;20089;-53
2020/12/31 03:29:45;;;;;;;53.42;19.35;;;;;;;7.75;97.20;98902.72;3475834;28;20049;-49
2020/12/31 03:31:27;;;;;;;49.30;21.33;;;;;;;7.75;97.08;98909.59;3483286;28;20079;-51
2020/12/31 03:33:12;;;;;;;62.03;23.50;;;;;;;7.74;97.17;98908.75;3482442;28;20057;-51
2020/12/31 03:34:53;;;;;;;52.40;21.35;;;;;;;7.74;97.27;98907.88;3479840;28;20088;-51
2020/12/31 03:36:34;;;;;;;49.42;21.38;;;;;;;7.74;97.04;98897.53;3479248;28;20045;-52
2020/12/31 03:38:18;;;;;;;65.68;24.13;;;;;;;7.73;97.14;98893.25;3482485;28;20512;-50
2020/12/31 03:39:59;;;;;;;47.33;20.70;;;;;;;7.73;97.24;98895.81;3472864;28;20049;-50
2020/12/31 03:41:41;;;;;;;65.68;23.38;;;;;;;7.72;97.15;98896.66;3473531;28;20052;-51
2020/12/31 03:43:22;;;;;;;55.80;24.35;;;;;;;7.72;97.29;98901.81;3481798;28;20103;-51
2020/12/31 03:45:03;;;;;;;62.05;22.25;;;;;;;7.70;97.24;98888.88;3480092;28;20060;-50
2020/12/31 03:46:45;;;;;;;53.53;20.77;;;;;;;7.69;97.12;98894.91;3481077;28;20053;-50
2020/12/31 03:48:26;;;;;;;51.50;21.20;;;;;;;7.70;97.19;98891.47;3481053;28;20113;-48
2020/12/31 03:50:07;;;;;;;58.03;22.17;;;;;;;7.69;97.27;98902.66;3469158;28;20073;-47
2020/12/31 03:51:49;;;;;;;55.58;22.52;;;;;;;7.69;97.29;98901.78;3475261;28;20052;-52
2020/12/31 03:53:31;;;;;;;58.42;21.98;;;;;;;7.69;97.28;98894.03;3480320;28;20500;-50
2020/12/31 03:55:12;;;;;;;65.45;25.38;;;;;;;7.68;97.15;98884.56;3469062;28;20435;-52
2020/12/31 03:56:53;;;;;;;57.90;23.42;;;;;;;7.67;97.30;98896.63;3479640;28;20537;-50
2020/12/31 03:58:34;;;;;;;60.10;22.88;;;;;;;7.66;97.28;98888.84;3478510;28;20049;-49
2020/12/31 04:00:16;;;;;;;56.75;21.52;;;;;;;7.65;97.16;98893.13;3468916;28;20103;-53
2020/12/31 04:01:57;;;;;;;51.97;21.70;;;;;;;7.64;97.15;98894.84;3478360;28;20095;-52
2020/12/31 04:03:38;;;;;;;59.63;22.98;;;;;;;7.64;97.40;98897.44;3475480;28;20536;-53
2020/12/31 04:05:20;;;;;;;53.92;21.25;;;;;;;7.63;97.36;98903.41;3468440;28;20053;-51
2020/12/31 04:07:01;;;;;;;56.58;22.55;;;;;;;7.63;97.34;98906.00;3468718;28;20088;-47
2020/12/31 04:08:43;;;;;;;53.63;21.77;;;;;;;7.64;97.33;98899.16;3470902;28;20053;-48
2020/12/31 04:10:25;;;;;;;64.35;21.73;;;;;;;7.63;97.25;98895.69;3469728;28;20490;-49
2020/12/31 04:12:06;;;;;;;58.00;20.48;;;;;;;7.62;97.30;98901.72;3468646;28;20049;-51
2020/12/31 04:13:47;;;;;;;55.10;22.02;;;;;;;7.61;97.42;98902.53;3468350;28;20053;-49
2020/12/31 04:15:29;;;;;;;58.40;22.63;;;;;;;7.61;97.33;98902.53;3472274;28;20055;-50
2020/12/31 04:17:12;;;;;;;66.25;25.15;;;;;;;7.60;97.17;98902.50;3482642;28;20536;-47
2020/12/31 04:18:53;;;;;;;65.13;26.25;;;;;;;7.59;97.31;98898.22;3480738;28;20053;-49
2020/12/31 04:20:35;;;;;;;56.72;23.60;;;;;;;7.58;97.42;98905.09;3479210;28;20509;-48
2020/12/31 04:22:17;;;;;;;56.20;21.90;;;;;;;7.58;97.36;98899.06;3482530;28;20057;-47
2020/12/31 04:23:59;;;;;;;52.40;22.08;;;;;;;7.58;97.28;98899.94;3479367;28;20570;-49
2020/12/31 04:25:40;;;;;;;65.65;24.58;;;;;;;7.56;97.24;98890.44;3480894;28;20513;-47
2020/12/31 04:27:22;;;;;;;57.40;22.50;;;;;;;7.56;97.17;98904.19;3483428;28;20071;-48
2020/12/31 04:29:03;;;;;;;57.58;22.17;;;;;;;7.56;97.21;98908.50;3468538;28;20138;-47
2020/12/31 04:30:45;;;;;;;57.28;22.92;;;;;;;7.56;97.35;98923.97;3476299;28;20060;-48
2020/12/31 04:32:26;;;;;;;57.22;21.55;;;;;;;7.55;97.39;98911.94;3470281;28;20057;-47
2020/12/31 04:34:07;;;;;;;66.47;22.30;;;;;;;7.55;97.13;98917.97;3482538;28;20087;-48
2020/12/31 04:35:49;;;;;;;52.83;21.45;;;;;;;7.54;97.24;98921.38;3470857;28;20616;-48
2020/12/31 04:37:30;;;;;;;61.58;21.25;;;;;;;7.56;97.40;98932.59;3468132;28;20048;-48
2020/12/31 04:39:13;;;;;;;54.60;22.52;;;;;;;7.54;97.35;98929.13;3468622;28;20414;-51
2020/12/31 04:41:01;;;;;;;55.85;23.50;;;;;;;7.56;97.14;98942.03;3482332;28;20072;-49
2020/12/31 04:42:43;;;;;;;46.28;22.63;;;;;;;7.55;97.07;98930.88;3472783;28;20046;-47
2020/12/31 04:44:25;;;;;;;60.47;22.80;;;;;;;7.55;97.05;98932.59;3469664;28;20068;-47
2020/12/31 04:46:10;;;;;;;58.08;22.73;;;;;;;7.55;96.98;98940.34;3481144;28;20091;-51
2020/12/31 04:48:01;;;;;;;50.47;21.90;;;;;;;7.53;96.55;98931.66;3473291;28;20414;-47
2020/12/31 04:49:44;;;;;;;50.67;21.77;;;;;;;7.54;96.68;98947.19;3473064;28;20080;-47
2020/12/31 04:51:26;;;;;;;51.38;22.48;;;;;;;7.55;96.45;98942.91;3482417;28;20090;-47
2020/12/31 04:53:09;;;;;;;52.72;21.52;;;;;;;7.53;96.41;98940.31;3471237;28;20084;-50
2020/12/31 04:54:52;;;;;;;52.63;21.60;;;;;;;7.53;96.52;98942.88;3472539;28;20492;-49
2020/12/31 04:56:38;;;;;;;52.08;22.67;;;;;;;7.53;96.16;98940.31;3483005;28;20529;-51
2020/12/31 04:58:19;;;;;;;58.22;20.92;;;;;;;7.53;96.29;98944.56;3481730;28;20056;-50
2020/12/31 05:00:01;;;;;;;44.92;20.45;;;;;;;7.52;96.21;98941.13;3471498;28;20494;-48
2020/12/31 05:01:44;;;;;;;42.33;19.38;;;;;;;7.53;96.06;98940.31;3467722;28;20052;-48
2020/12/31 05:03:26;;;;;;;48.45;19.98;;;;;;;7.52;96.01;98941.13;3468551;28;20053;-48
2020/12/31 05:05:07;;;;;;;44.67;19.48;;;;;;;7.52;96.00;98951.47;3479579;28;20048;-49
2020/12/31 05:06:52;;;;;;;44.60;21.10;;;;;;;7.53;95.77;98952.31;3475974;28;20041;-48
2020/12/31 05:08:34;;;;;;;46.60;20.52;;;;;;;7.51;95.68;98949.75;3468100;28;20104;-49
2020/12/31 05:10:16;;;;;;;45.10;22.40;;;;;;;7.53;95.63;98949.75;3470225;28;20049;-48
2020/12/31 05:11:57;;;;;;;45.95;20.58;;;;;;;7.52;95.76;98950.59;3474444;28;20045;-48
2020/12/31 05:13:42;;;;;;;55.20;23.08;;;;;;;7.51;95.73;98951.44;3479941;28;20053;-47
2020/12/31 05:15:32;;;;;;;41.63;19.50;;;;;;;7.51;95.67;98949.75;3468282;28;20077;-48
2020/12/31 05:17:15;;;;;;;49.17;20.13;;;;;;;7.50;95.73;98949.72;3468833;28;20072;-48
2020/12/31 05:18:57;;;;;;;44.58;19.08;;;;;;;7.49;95.69;98956.56;3471831;28;20048;-48
2020/12/31 05:20:38;;;;;;;43.33;20.17;;;;;;;7.49;95.74;98955.72;3482093;28;20053;-48
2020/12/31 05:22:21;;;;;;;47.65;20.40;;;;;;;7.48;95.61;98960.00;3478556;28;20140;-47
2020/12/31 05:24:11;;;;;;;42.83;18.20;;;;;;;7.48;95.58;98965.19;3475141;28;20522;-49
2020/12/31 05:25:54;;;;;;;43.67;19.60;;;;;;;7.48;95.57;98966.88;3470532;28;20061;-48
2020/12/31 05:27:36;;;;;;;49.97;22.10;;;;;;;7.47;95.55;98970.31;3473871;28;20059;-50
2020/12/31 05:29:23;;;;;;;47.08;21.30;;;;;;;7.45;95.61;98965.97;3470947;28;20049;-48
2020/12/31 05:31:09;;;;;;;47.72;21.83;;;;;;;7.46;95.43;98969.44;3473434;28;20081;-48
2020/12/31 05:32:50;;;;;;;43.58;20.77;;;;;;;7.47;95.57;98968.59;3482177;28;20064;-47
2020/12/31 05:34:32;;;;;;;50.20;21.27;;;;;;;7.46;95.49;98969.44;3480218;28;20052;-48
2020/12/31 05:36:24;;;;;;;51.38;22.85;;;;;;;7.45;95.40;98970.28;3481411;28;20056;-48
2020/12/31 05:38:18;;;;;;;52.50;22.55;;;;;;;7.44;95.57;98972.00;3481297;28;20095;-49
2020/12/31 05:40:06;;;;;;;55.97;24.85;;;;;;;7.44;95.39;98977.16;3467971;28;20049;-49
2020/12/31 05:41:48;;;;;;;;;;;;;;;7.44;95.33;98978.84;3477018;28;20049;-48
2020/12/31 05:43:29;;;;;;;56.85;23.27;;;;;;;7.42;95.40;98978.88;3475370;28;20023;-48
2020/12/31 05:45:12;;;;;;;58.03;30.23;;;;;;;7.42;95.29;98981.44;3469514;28;20084;-47
2020/12/31 05:46:54;;;;;;;58.30;28.35;;;;;;;7.42;95.56;98978.88;3467902;28;20054;-48
2020/12/31 05:48:36;;;;;;;50.75;25.75;;;;;;;7.39;95.38;98971.06;3470032;28;20050;-48
2020/12/31 05:50:20;;;;;;;50.85;25.02;;;;;;;7.39;95.57;98985.69;3470105;28;20045;-48
2020/12/31 05:52:01;;;;;;;47.72;24.08;;;;;;;7.40;95.30;98983.09;3468253;28;20095;-48
2020/12/31 05:53:47;;;;;;;48.78;21.83;;;;;;;7.40;95.38;98980.53;3478759;28;20053;-48
2020/12/31 05:55:31;;;;;;;47.08;20.73;;;;;;;7.40;95.44;98984.81;3478382;28;20063;-48
2020/12/31 05:57:13;;;;;;;;;;;;;;;7.41;95.31;98984.00;3482247;28;20057;-48
2020/12/31 05:58:59;;;;;;;47.83;22.02;;;;;;;7.42;95.29;98993.44;3467680;28;19967;-47
2020/12/31 06:00:46;;;;;;;44.50;21.95;;;;;;;7.41;95.28;98990.00;3469340;28;20053;-48
2020/12/31 06:02:27;;;;;;;44.28;20.13;;;;;;;7.42;95.09;98990.88;3472195;28;20495;-48
2020/12/31 06:04:18;;;;;;;47.45;20.05;;;;;;;7.42;95.16;98996.03;3470246;28;20509;-48
2020/12/31 06:06:04;;;;;;;52.58;20.27;;;;;;;7.42;94.99;98988.28;3471032;28;20510;-48
2020/12/31 06:07:48;;;;;;;44.80;21.27;;;;;;;7.41;94.85;98997.75;3472684;28;20417;-52
2020/12/31 06:09:31;;;;;;;43.67;20.33;;;;;;;7.42;94.72;98996.94;3483651;28;20077;-51
2020/12/31 06:11:22;;;;;;;39.83;19.92;;;;;;;7.43;94.88;98995.19;3482382;28;20141;-50
2020/12/31 06:13:05;;;;;;;39.60;18.30;;;;;;;7.41;94.80;99005.50;3482344;28;20099;-48
2020/12/31 06:14:54;;;;;;;37.05;17.13;;;;;;;7.42;94.73;99004.66;3483438;28;20060;-48
2020/12/31 06:16:38;;;;;;;39.45;18.98;;;;;;;7.42;94.88;99008.94;3486729;28;20156;-49
2020/12/31 06:18:28;;;;;;;43.45;18.50;;;;;;;7.41;94.61;99000.34;3485643;28;20055;-48
2020/12/31 06:20:12;;;;;;;41.58;19.40;;;;;;;7.41;94.85;99017.53;3484864;28;20059;-48
2020/12/31 06:22:04;;;;;;;41.97;18.63;;;;;;;7.40;94.80;99008.91;3485701;28;20049;-48
2020/12/31 06:23:46;;;;;;;49.15;19.48;;;;;;;7.38;94.92;99010.59;3486728;28;20041;-48
2020/12/31 06:25:36;;;;;;;42.30;19.80;;;;;;;7.38;94.83;99009.75;3479462;28;20065;-48
2020/12/31 06:27:17;;;;;;;46.13;20.15;;;;;;;7.37;94.75;99008.00;3478388;28;20542;-48
2020/12/31 06:28:59;;;;;;;51.10;20.50;;;;;;;7.35;95.01;99001.94;3479098;28;20048;-48
2020/12/31 06:30:43;;;;;;;43.10;20.67;;;;;;;7.35;95.14;99001.94;3480141;28;20107;-48
2020/12/31 06:32:27;;;;;;;43.58;20.85;;;;;;;7.35;95.01;99001.94;3481101;28;20560;-48
2020/12/31 06:34:09;;;;;;;48.03;21.35;;;;;;;7.34;94.97;99006.25;3479017;28;20053;-48
2020/12/31 06:35:55;;;;;;;46.05;20.13;;;;;;;7.34;95.06;99006.25;3481656;28;20596;-48
2020/12/31 06:37:38;;;;;;;47.28;20.10;;;;;;;7.33;95.29;99007.06;3480996;28;20053;-48
2020/12/31 06:39:19;;;;;;;50.00;21.50;;;;;;;7.33;95.14;99003.63;3477655;28;20040;-48
2020/12/31 06:41:02;;;;;;;44.45;21.38;;;;;;;7.32;95.38;99002.78;3482986;28;20083;-48
2020/12/31 06:43:05;;;;;;;44.22;21.08;;;;;;;7.32;95.52;99005.34;3479145;28;20048;-48
2020/12/31 06:44:47;;;;;;;38.15;18.08;;;;;;;7.31;95.21;98997.59;3480376;28;20132;-48
2020/12/31 06:46:38;;;;;;;50.00;21.25;;;;;;;7.30;95.51;99007.06;3482422;28;20092;-48
2020/12/31 06:48:36;;;;;;;44.05;19.10;;;;;;;7.31;95.38;99005.34;3480322;28;20064;-47
2020/12/31 06:50:18;;;;;;;44.22;19.52;;;;;;;7.31;95.46;99006.19;3479973;28;20099;-48
2020/12/31 06:52:17;;;;;;;51.67;21.15;;;;;;;7.31;95.42;99013.94;3478157;28;20517;-48
2020/12/31 06:53:59;;;;;;;48.38;21.40;;;;;;;7.32;95.64;99015.69;3477862;28;20498;-48
2020/12/31 06:55:43;;;;;;;48.80;20.63;;;;;;;7.33;95.68;99021.69;3481798;28;20622;-50
2020/12/31 06:57:37;;;;;;;34.67;15.52;;;;;;;7.32;95.52;99023.41;3480740;28;20051;-47
2020/12/31 06:59:30;;;;;;;50.63;23.15;;;;;;;7.32;95.61;99023.41;3476361;28;20085;-48
2020/12/31 07:01:26;;;;;;;49.78;20.80;;;;;;;7.32;95.66;99018.25;3477992;28;20056;-49
2020/12/31 07:03:07;;;;;;;54.83;22.30;;;;;;;7.33;95.59;99027.72;3480379;28;20045;-47
2020/12/31 07:04:49;;;;;;;46.70;20.98;;;;;;;7.33;95.64;99030.28;3480775;28;20109;-48
2020/12/31 07:06:34;;;;;;;45.83;20.08;;;;;;;7.33;95.80;99016.53;3477049;28;20049;-48
2020/12/31 07:08:37;;;;;;;52.13;22.40;;;;;;;7.33;95.66;99021.69;3480205;28;20052;-48
2020/12/31 07:10:19;;;;;;;51.30;21.30;;;;;;;7.33;95.69;99021.69;3479420;28;20060;-47
2020/12/31 07:12:03;;;;;;;40.67;20.77;;;;;;;7.32;95.78;99023.41;3479894;28;20067;-47
2020/12/31 07:13:44;;;;;;;;;;;;;;;7.31;95.64;99019.09;3479571;28;20530;-47
2020/12/31 07:15:38;;;;;;;46.00;20.77;;;;;;;7.31;95.75;99016.50;3480003;28;19928;-47
2020/12/31 07:17:20;;;;;;;52.50;22.98;;;;;;;7.31;95.85;99023.38;3479744;28;20103;-47
2020/12/31 07:19:04;;;;;;;55.60;22.15;;;;;;;7.31;95.92;99023.38;3479540;28;20076;-47
2020/12/31 07:20:46;;;;;;;47.45;21.45;;;;;;;7.31;96.01;99026.84;3480296;28;20072;-50
2020/12/31 07:22:29;;;;;;;51.03;21.77;;;;;;;7.29;95.91;99025.94;3481483;28;20048;-51
2020/12/31 07:24:24;;;;;;;41.15;18.88;;;;;;;7.29;96.03;99022.50;3478774;28;20056;-50
2020/12/31 07:26:05;;;;;;;50.08;21.63;;;;;;;7.29;96.19;99022.50;3478104;28;20053;-50
2020/12/31 07:27:48;;;;;;;55.03;23.02;;;;;;;7.28;96.24;99013.88;3479649;28;20111;-51
2020/12/31 07:29:31;;;;;;;51.92;22.77;;;;;;;7.29;96.40;99023.38;3482109;28;20464;-50
2020/12/31 07:31:33;;;;;;;49.13;20.33;;;;;;;7.29;96.26;99020.78;3482270;28;20544;-50
2020/12/31 07:33:34;;;;;;;47.70;20.52;;;;;;;7.28;96.29;99026.78;3482153;28;20053;-51
2020/12/31 07:35:29;;;;;;;63.10;24.77;;;;;;;7.28;96.06;99031.06;3479932;28;20139;-49
2020/12/31 07:37:12;;;;;;;64.75;24.50;;;;;;;7.27;96.43;99032.78;3482902;28;20044;-53
2020/12/31 07:38:54;;;;;;;55.03;22.20;;;;;;;7.28;96.27;99036.22;3481950;28;20102;-51
2020/12/31 07:40:40;;;;;;;64.80;22.90;;;;;;;7.27;96.55;99035.38;3478755;28;20309;-51
2020/12/31 07:42:22;;;;;;;54.65;21.20;;;;;;;7.28;96.47;99039.66;3477038;28;20115;-49
2020/12/31 07:44:03;;;;;;;60.17;21.92;;;;;;;7.26;96.45;99039.69;3481855;28;20084;-51
2020/12/31 07:45:47;;;;;;;61.33;23.80;;;;;;;7.26;96.56;99034.50;3477926;28;20107;-52
2020/12/31 07:47:28;;;;;;;55.50;22.85;;;;;;;7.28;96.65;99043.97;3477052;28;20072;-51
2020/12/31 07:49:13;;;;;;;60.30;23.52;;;;;;;7.27;96.64;99043.13;3482011;28;20041;-51
2020/12/31 07:50:56;;;;;;;58.97;24.15;;;;;;;7.26;96.59;99043.94;3477487;28;20095;-52
2020/12/31 07:52:40;;;;;;;60.92;24.50;;;;;;;7.27;96.68;99043.13;3478624;28;20545;-50
2020/12/31 07:54:22;;;;;;;56.95;24.30;;;;;;;7.29;96.65;99048.31;3479768;28;20766;-53
2020/12/31 07:56:06;;;;;;;56.13;22.63;;;;;;;7.28;96.69;99047.41;3482303;28;20098;-52
2020/12/31 07:57:49;;;;;;;58.65;23.33;;;;;;;7.28;96.73;99046.56;3476360;28;20468;-50
2020/12/31 07:59:30;;;;;;;63.25;25.58;;;;;;;7.29;96.94;99051.75;3477543;28;20464;-51
2020/12/31 08:01:12;;;;;;;58.53;22.70;;;;;;;7.30;96.93;99055.19;3468836;28;20174;-49
2020/12/31 08:02:55;;;;;;;54.50;22.73;;;;;;;7.30;96.67;99056.06;3479959;28;20099;-51